createdAt,value
2024-04-10T00:01:45.573Z,14.00
2024-04-10T00:04:13.286Z,14.02
2024-04-10T00:06:40.608Z,14.03
2024-04-10T00:09:08.116Z,14.04
2024-04-10T00:11:35.538Z,14.03
2024-04-10T00:14:03.236Z,14.02
2024-04-10T00:16:30.970Z,14.01
2024-04-10T00:18:58.358Z,14.00
2024-04-10T00:21:25.771Z,13.99
2024-04-10T00:23:53.069Z,13.97
2024-04-10T00:26:20.528Z,13.94
2024-04-10T00:28:47.970Z,13.91
2024-04-10T00:31:15.235Z,13.91
2024-04-10T00:33:42.552Z,13.91
2024-04-10T00:36:12.296Z,13.92
2024-04-10T00:38:39.537Z,13.92
2024-04-10T00:41:07.344Z,13.93
2024-04-10T00:43:34.851Z,13.94
2024-04-10T00:46:15.910Z,13.95
2024-04-10T00:48:43.660Z,13.95
2024-04-10T00:51:12.335Z,13.95
2024-04-10T00:53:41.041Z,13.92
2024-04-10T00:56:09.837Z,13.88
2024-04-10T00:58:37.578Z,13.84
2024-04-10T01:01:05.673Z,13.79
2024-04-10T01:03:34.681Z,13.75
2024-04-10T01:06:03.816Z,13.70
2024-04-10T01:08:32.495Z,13.64
2024-04-10T01:11:00.635Z,13.58
2024-04-10T01:13:28.251Z,13.51
2024-04-10T01:15:56.988Z,13.46
2024-04-10T01:18:24.721Z,13.43
2024-04-10T01:20:52.068Z,13.42
2024-04-10T01:23:20.000Z,13.41
2024-04-10T01:25:47.765Z,13.42
2024-04-10T01:28:15.198Z,13.43
2024-04-10T01:30:42.469Z,13.43
2024-04-10T01:33:09.985Z,13.46
2024-04-10T01:35:37.338Z,13.48
2024-04-10T01:38:04.826Z,13.51
2024-04-10T01:40:32.192Z,13.52
2024-04-10T01:42:59.555Z,13.54
2024-04-10T01:45:26.953Z,13.56
2024-04-10T01:47:54.406Z,13.57
2024-04-10T01:50:21.799Z,13.59
2024-04-10T01:52:49.331Z,13.60
2024-04-10T01:55:16.580Z,13.60
2024-04-10T01:57:45.524Z,13.59
2024-04-10T02:00:13.324Z,13.55
2024-04-10T02:02:40.737Z,13.51
2024-04-10T02:05:08.238Z,13.46
2024-04-10T02:07:35.464Z,13.40
2024-04-10T02:10:02.622Z,13.34
2024-04-10T02:12:29.776Z,13.28
2024-04-10T02:14:57.033Z,13.21
2024-04-10T02:17:24.903Z,13.15
2024-04-10T02:19:52.704Z,13.10
2024-04-10T02:22:19.967Z,13.04
2024-04-10T02:24:47.568Z,12.99
2024-04-10T02:27:14.971Z,12.94
2024-04-10T02:29:42.200Z,12.89
2024-04-10T02:32:09.542Z,12.85
2024-04-10T02:34:38.002Z,12.82
2024-04-10T02:37:05.993Z,12.77
2024-04-10T02:39:33.353Z,12.74
2024-04-10T02:42:00.606Z,12.71
2024-04-10T02:44:28.148Z,12.66
2024-04-10T02:46:56.577Z,12.59
2024-04-10T02:49:23.781Z,12.56
2024-04-10T02:51:50.995Z,12.53
2024-04-10T02:54:18.197Z,12.48
2024-04-10T02:56:46.066Z,12.43
2024-04-10T02:59:13.315Z,12.39
2024-04-10T03:01:41.000Z,12.34
2024-04-10T03:04:08.684Z,12.29
2024-04-10T03:06:36.101Z,12.24
2024-04-10T03:09:03.342Z,12.21
2024-04-10T03:11:32.708Z,12.20
2024-04-10T03:14:00.052Z,12.18
2024-04-10T03:16:27.752Z,12.15
2024-04-10T03:18:55.350Z,12.11
2024-04-10T03:21:22.635Z,12.07
2024-04-10T03:23:50.451Z,12.02
2024-04-10T03:26:17.766Z,11.98
2024-04-10T03:28:44.954Z,11.95
2024-04-10T03:31:15.016Z,11.92
2024-04-10T03:33:42.423Z,11.91
2024-04-10T03:36:10.035Z,11.90
2024-04-10T03:38:37.520Z,11.91
2024-04-10T03:41:04.834Z,11.90
2024-04-10T03:43:32.210Z,11.89
2024-04-10T03:46:01.153Z,11.92
2024-04-10T03:48:29.207Z,11.98
2024-04-10T03:51:00.718Z,12.07
2024-04-10T03:53:29.323Z,12.13
2024-04-10T03:55:57.734Z,12.19
2024-04-10T03:58:25.387Z,12.25
2024-04-10T04:00:52.754Z,12.31
2024-04-10T04:03:26.113Z,12.37
2024-04-10T04:05:53.889Z,12.43
2024-04-10T04:08:24.210Z,12.50
2024-04-10T04:10:52.038Z,12.57
2024-04-10T04:13:19.406Z,12.65
2024-04-10T04:15:46.796Z,12.78
2024-04-10T04:18:14.000Z,12.95
2024-04-10T04:20:41.436Z,13.11
2024-04-10T04:23:08.810Z,13.29
2024-04-10T04:25:39.081Z,13.55
2024-04-10T04:28:06.718Z,13.77
2024-04-10T04:30:37.308Z,14.01
2024-04-10T04:33:05.495Z,14.18
2024-04-10T04:35:33.019Z,14.31
2024-04-10T04:38:00.980Z,14.42
2024-04-10T04:40:31.662Z,14.55
2024-04-10T04:43:16.954Z,14.71
2024-04-10T04:45:44.813Z,14.91
2024-04-10T04:48:16.067Z,15.09
2024-04-10T04:50:59.914Z,15.26
2024-04-10T04:53:27.763Z,15.55
2024-04-10T04:55:57.314Z,15.89
2024-04-10T04:58:28.082Z,16.36
2024-04-10T05:00:57.439Z,17.02
2024-04-10T05:03:43.454Z,17.74
2024-04-10T05:06:11.229Z,18.59
2024-04-10T05:08:38.680Z,19.31
2024-04-10T05:11:09.930Z,20.01
2024-04-10T05:13:37.879Z,20.68
2024-04-10T05:16:05.200Z,21.32
2024-04-10T05:18:32.495Z,21.92
2024-04-10T05:21:06.887Z,22.50
2024-04-10T05:23:42.661Z,23.11
2024-04-10T05:26:10.428Z,23.60
2024-04-10T05:28:37.860Z,24.05
2024-04-10T05:31:05.540Z,24.50
2024-04-10T05:33:32.949Z,24.92
2024-04-10T05:36:02.151Z,25.34
2024-04-10T05:38:33.201Z,25.80
2024-04-10T05:41:04.560Z,26.22
2024-04-10T05:43:31.870Z,26.62
2024-04-10T05:46:00.230Z,26.97
2024-04-10T05:48:27.991Z,27.27
2024-04-10T05:50:59.800Z,27.60
2024-04-10T05:53:27.339Z,27.90
2024-04-10T05:55:54.722Z,28.20
2024-04-10T05:58:23.508Z,28.50
2024-04-10T06:00:52.468Z,28.80
2024-04-10T06:03:21.814Z,29.08
2024-04-10T06:05:51.344Z,29.28
2024-04-10T06:08:19.264Z,29.55
2024-04-10T06:10:52.190Z,29.77
2024-04-10T06:13:19.445Z,30.04
2024-04-10T06:15:46.821Z,30.33
2024-04-10T06:18:14.356Z,30.57
2024-04-10T06:20:42.284Z,30.75
2024-04-10T06:23:09.611Z,30.94
2024-04-10T06:25:36.920Z,31.04
2024-04-10T06:28:04.958Z,31.22
2024-04-10T06:30:32.289Z,31.36
2024-04-10T06:32:59.698Z,31.59
2024-04-10T06:35:27.380Z,31.79
2024-04-10T06:38:01.000Z,31.94
2024-04-10T06:40:29.828Z,32.12
2024-04-10T06:42:57.921Z,32.29
2024-04-10T06:45:26.092Z,32.45
2024-04-10T06:47:53.693Z,32.60
2024-04-10T06:50:21.071Z,32.75
2024-04-10T06:52:48.615Z,32.94
2024-04-10T06:55:22.704Z,33.08
2024-04-10T06:57:54.688Z,33.13
2024-04-10T07:00:22.245Z,33.25
2024-04-10T07:02:49.656Z,33.43
2024-04-10T07:05:17.003Z,33.58
2024-04-10T07:07:44.298Z,33.68
2024-04-10T07:10:11.545Z,33.84
2024-04-10T07:12:39.341Z,33.88
2024-04-10T07:15:07.360Z,33.98
2024-04-10T07:17:34.710Z,34.09
2024-04-10T07:20:02.329Z,34.12
2024-04-10T07:22:29.613Z,34.21
2024-04-10T07:24:57.054Z,34.29
2024-04-10T07:27:24.317Z,34.41
2024-04-10T07:29:52.570Z,34.57
2024-04-10T07:32:19.857Z,34.73
2024-04-10T07:34:47.567Z,34.84
2024-04-10T07:37:14.821Z,34.86
2024-04-10T07:39:42.419Z,34.91
2024-04-10T07:42:10.449Z,34.99
2024-04-10T07:44:39.670Z,35.15
2024-04-10T07:47:08.176Z,35.34
2024-04-10T07:49:36.356Z,35.44
2024-04-10T07:52:03.760Z,35.55
2024-04-10T07:54:33.024Z,35.64
2024-04-10T07:57:00.677Z,35.76
2024-04-10T07:59:28.138Z,35.94
2024-04-10T08:01:55.439Z,36.11
2024-04-10T08:04:24.178Z,36.27
2024-04-10T08:06:51.488Z,36.42
2024-04-10T08:09:19.247Z,36.50
2024-04-10T08:11:47.027Z,36.47
2024-04-10T08:14:14.739Z,36.44
2024-04-10T08:16:42.494Z,36.58
2024-04-10T08:19:09.899Z,36.53
2024-04-10T08:21:38.555Z,36.41
2024-04-10T08:24:05.983Z,36.26
2024-04-10T08:26:35.221Z,36.02
2024-04-10T08:29:04.089Z,35.92
2024-04-10T08:31:31.775Z,35.81
2024-04-10T08:33:59.283Z,35.81
2024-04-10T08:36:28.989Z,35.87
2024-04-10T08:38:56.488Z,35.93
2024-04-10T08:41:24.177Z,36.01
2024-04-10T08:43:53.114Z,36.06
2024-04-10T08:46:24.424Z,36.01
2024-04-10T08:48:56.303Z,35.88
2024-04-10T08:51:25.019Z,35.90
2024-04-10T08:53:54.252Z,36.16
2024-04-10T08:56:21.574Z,36.39
2024-04-10T08:58:48.805Z,36.62
2024-04-10T09:01:34.664Z,36.82
2024-04-10T09:04:09.900Z,37.00
2024-04-10T09:06:37.680Z,36.92
2024-04-10T09:09:07.969Z,36.71
2024-04-10T09:11:35.566Z,36.67
2024-04-10T09:14:07.356Z,36.77
2024-04-10T09:16:36.118Z,36.72
2024-04-10T09:19:14.600Z,36.62
2024-04-10T09:21:43.253Z,36.62
2024-04-10T09:24:10.993Z,36.78
2024-04-10T09:26:39.443Z,36.92
2024-04-10T09:29:10.917Z,36.90
2024-04-10T09:31:39.384Z,36.67
2024-04-10T09:34:07.571Z,36.53
2024-04-10T09:36:35.527Z,36.36
2024-04-10T09:39:08.559Z,36.15
2024-04-10T09:41:36.291Z,36.11
2024-04-10T09:44:04.901Z,36.21
2024-04-10T09:46:36.439Z,36.11
2024-04-10T09:52:37.372Z,36.10
2024-04-10T09:55:04.901Z,36.14
2024-04-10T09:57:32.584Z,36.06
2024-04-10T10:00:02.992Z,35.93
2024-04-10T10:02:35.517Z,35.99
2024-04-10T10:05:02.944Z,36.07
2024-04-10T10:07:30.881Z,35.88
2024-04-10T10:10:08.956Z,35.65
2024-04-10T10:12:36.580Z,35.64
2024-04-10T10:15:11.342Z,35.68
2024-04-10T10:20:31.474Z,35.77
2024-04-10T10:23:02.501Z,35.86
2024-04-10T10:25:29.849Z,35.86
2024-04-10T10:28:07.862Z,35.82
2024-04-10T10:30:34.919Z,35.68
2024-04-10T10:33:04.579Z,35.55
2024-04-10T10:35:31.515Z,35.55
2024-04-10T10:37:58.797Z,35.59
2024-04-10T10:40:25.464Z,35.72
2024-04-10T10:43:05.728Z,35.88
2024-04-10T10:45:34.980Z,35.89
2024-04-10T10:48:05.237Z,35.77
2024-04-10T10:50:33.375Z,35.50
2024-04-10T10:53:01.553Z,35.40
2024-04-10T10:55:29.602Z,35.37
2024-04-10T10:58:15.391Z,35.33
2024-04-10T11:00:42.095Z,35.04
2024-04-10T11:03:16.951Z,34.93
2024-04-10T11:05:51.031Z,34.87
2024-04-10T11:08:24.688Z,34.89
2024-04-10T11:10:52.392Z,34.78
2024-04-10T11:13:19.471Z,34.73
2024-04-10T11:15:47.554Z,34.73
2024-04-10T11:18:19.937Z,34.69
2024-04-10T11:20:51.091Z,34.67
2024-04-10T11:23:27.926Z,34.69
2024-04-10T11:26:01.694Z,34.65
2024-04-10T11:28:28.817Z,34.63
2024-04-10T11:31:04.441Z,34.62
2024-04-10T11:33:46.756Z,34.44
2024-04-10T11:36:19.582Z,34.34
2024-04-10T11:38:49.042Z,34.26
2024-04-10T11:41:15.898Z,34.20
2024-04-10T11:43:42.773Z,34.01
2024-04-10T11:46:10.017Z,33.94
2024-04-10T11:48:39.993Z,33.92
2024-04-10T11:51:07.228Z,33.91
2024-04-10T11:53:34.149Z,33.80
2024-04-10T11:56:00.893Z,33.68
2024-04-10T11:58:27.533Z,33.46
2024-04-10T12:00:54.277Z,33.15
2024-04-10T12:03:22.204Z,32.87
2024-04-10T12:05:50.468Z,32.69
2024-04-10T12:08:19.508Z,32.56
2024-04-10T12:10:46.546Z,32.43
2024-04-10T12:13:13.206Z,32.29
2024-04-10T12:15:40.660Z,32.00
2024-04-10T12:18:07.579Z,31.67
2024-04-10T12:20:34.723Z,31.31
2024-04-10T12:23:01.433Z,30.98
2024-04-10T12:25:29.130Z,30.75
2024-04-10T12:27:55.803Z,30.62
2024-04-10T12:30:22.951Z,30.46
2024-04-10T12:32:49.738Z,30.31
2024-04-10T12:35:35.827Z,30.17
2024-04-10T12:38:06.620Z,30.04
2024-04-10T12:40:36.351Z,29.96
2024-04-10T12:43:03.988Z,29.88
2024-04-10T12:45:31.764Z,29.77
2024-04-10T12:47:58.946Z,29.70
2024-04-10T12:50:26.470Z,29.63
2024-04-10T12:52:53.542Z,29.49
2024-04-10T12:55:20.150Z,29.34
2024-04-10T12:57:47.838Z,29.16
2024-04-10T13:00:14.894Z,28.98
2024-04-10T13:02:44.251Z,28.80
2024-04-10T13:05:11.872Z,28.66
2024-04-10T13:07:38.664Z,28.54
2024-04-10T13:10:05.980Z,28.37
2024-04-10T13:12:33.443Z,28.21
2024-04-10T13:15:01.547Z,28.18
2024-04-10T13:17:32.009Z,28.19
2024-04-10T13:20:00.157Z,28.20
2024-04-10T13:22:27.226Z,28.16
2024-04-10T13:24:54.104Z,28.06
2024-04-10T13:27:21.269Z,27.98
2024-04-10T13:29:50.748Z,27.89
2024-04-10T13:32:17.512Z,27.78
2024-04-10T13:34:49.130Z,27.71
2024-04-10T13:37:26.126Z,27.67
2024-04-10T13:39:57.834Z,27.62
2024-04-10T13:42:24.587Z,27.55
2024-04-10T13:44:51.556Z,27.46
2024-04-10T13:47:18.506Z,27.38
2024-04-10T13:49:45.469Z,27.34
2024-04-10T13:52:12.330Z,27.29
2024-04-10T13:54:40.090Z,27.24
2024-04-10T13:57:06.735Z,27.14
2024-04-10T13:59:33.582Z,27.05
2024-04-10T14:02:00.808Z,26.99
2024-04-10T14:04:28.026Z,26.93
2024-04-10T14:06:54.899Z,26.87
2024-04-10T14:09:22.178Z,26.83
2024-04-10T14:11:49.407Z,26.77
2024-04-10T14:14:16.670Z,26.72
2024-04-10T14:16:48.233Z,26.67
2024-04-10T14:19:15.052Z,26.63
2024-04-10T14:21:41.954Z,26.57
2024-04-10T14:24:08.902Z,26.52
2024-04-10T14:26:36.294Z,26.46
2024-04-10T14:29:03.419Z,26.41
2024-04-10T14:31:30.158Z,26.36
2024-04-10T14:33:57.612Z,26.32
2024-04-10T14:37:00.561Z,26.25
2024-04-10T14:39:30.045Z,26.19
2024-04-10T14:41:57.759Z,26.15
2024-04-10T14:44:44.014Z,26.12
2024-04-10T14:47:22.742Z,26.08
2024-04-10T14:49:52.179Z,26.04
2024-04-10T14:52:18.897Z,26.00
2024-04-10T14:55:39.277Z,25.97
2024-04-10T14:58:12.774Z,25.92
2024-04-10T15:00:54.544Z,25.88
2024-04-10T15:06:52.856Z,25.78
2024-04-10T15:09:28.352Z,25.73
2024-04-10T15:11:59.616Z,25.67
2024-04-10T15:14:27.748Z,25.61
2024-04-10T15:17:04.690Z,25.54
2024-04-10T15:24:01.226Z,25.41
2024-04-10T15:26:49.986Z,25.36
2024-04-10T15:29:16.821Z,25.28
2024-04-10T15:31:44.146Z,25.23
2024-04-10T15:34:13.731Z,25.18
2024-04-10T15:36:40.593Z,25.16
2024-04-10T15:39:07.767Z,25.14
2024-04-10T15:41:34.934Z,25.09
2024-04-10T15:44:01.995Z,25.04
2024-04-10T15:46:28.782Z,24.99
2024-04-10T15:48:58.491Z,24.92
2024-04-10T15:51:26.428Z,24.85
2024-04-10T15:53:54.229Z,24.78
2024-04-10T15:56:20.978Z,24.72
2024-04-10T15:58:47.621Z,24.65
2024-04-10T16:01:14.904Z,24.57
2024-04-10T16:03:47.295Z,24.47
2024-04-10T16:06:16.747Z,24.39
2024-04-10T16:08:44.906Z,24.28
2024-04-10T16:11:18.503Z,24.19
2024-04-10T16:13:50.802Z,24.08
2024-04-10T16:16:19.298Z,23.97
2024-04-10T16:18:47.397Z,23.87
2024-04-10T16:21:15.537Z,23.76
2024-04-10T16:23:46.662Z,23.63
2024-04-10T16:26:15.245Z,23.51
2024-04-10T16:28:42.349Z,23.37
2024-04-10T16:31:13.193Z,23.23
2024-04-10T16:33:40.250Z,23.08
2024-04-10T16:36:11.262Z,22.95
2024-04-10T16:38:38.872Z,22.82
2024-04-10T16:41:05.517Z,22.68
2024-04-10T16:43:34.613Z,22.56
2024-04-10T16:46:06.417Z,22.43
2024-04-10T16:48:33.446Z,22.31
2024-04-10T16:51:08.279Z,22.20
2024-04-10T16:53:37.559Z,22.09
2024-04-10T16:56:06.909Z,21.97
2024-04-10T16:58:33.975Z,21.83
2024-04-10T17:01:06.018Z,21.69
2024-04-10T17:03:36.551Z,21.56
2024-04-10T17:06:04.988Z,21.43
2024-04-10T17:08:32.428Z,21.30
2024-04-10T17:10:59.379Z,21.20
2024-04-10T17:13:26.934Z,21.11
2024-04-10T17:15:54.145Z,21.02
2024-04-10T17:18:42.220Z,20.92
2024-04-10T17:21:27.667Z,20.81
2024-04-10T17:23:54.435Z,20.71
2024-04-10T17:26:24.290Z,20.60
2024-04-10T17:28:52.805Z,20.52
2024-04-10T17:31:25.965Z,20.43
2024-04-10T17:33:56.179Z,20.34
2024-04-10T17:36:25.305Z,20.25
2024-04-10T17:38:52.061Z,20.15
2024-04-10T17:41:19.248Z,20.04
2024-04-10T17:43:46.051Z,19.93
2024-04-10T17:46:12.753Z,19.83
2024-04-10T17:48:44.605Z,19.74
2024-04-10T17:51:17.395Z,19.65
2024-04-10T17:53:46.524Z,19.57
2024-04-10T17:56:20.130Z,19.49
2024-04-10T17:58:46.985Z,19.41
2024-04-10T18:01:13.800Z,19.31
2024-04-10T18:03:42.829Z,19.24
2024-04-10T18:06:11.976Z,19.15
2024-04-10T18:08:39.523Z,19.07
2024-04-10T18:11:06.725Z,18.98
2024-04-10T18:13:33.550Z,18.91
2024-04-10T18:16:00.778Z,18.83
2024-04-10T18:18:28.450Z,18.76
2024-04-10T18:21:00.104Z,18.69
2024-04-10T18:23:27.669Z,18.61
2024-04-10T18:26:04.924Z,18.55
2024-04-10T18:28:33.022Z,18.48
2024-04-10T18:31:01.268Z,18.40
2024-04-10T18:33:31.930Z,18.33
2024-04-10T18:36:04.186Z,18.26
2024-04-10T18:38:31.030Z,18.18
2024-04-10T18:40:59.311Z,18.11
2024-04-10T18:43:34.589Z,18.02
2024-04-10T18:46:05.561Z,17.94
2024-04-10T18:48:37.068Z,17.88
2024-04-10T18:51:10.648Z,17.82
2024-04-10T18:53:37.762Z,17.77
2024-04-10T18:56:04.670Z,17.72
2024-04-10T18:58:31.674Z,17.68
2024-04-10T19:00:59.645Z,17.62
2024-04-10T19:03:26.965Z,17.56
2024-04-10T19:05:57.258Z,17.48
2024-04-10T19:08:29.695Z,17.38
2024-04-10T19:10:57.273Z,17.31
2024-04-10T19:13:24.541Z,17.23
2024-04-10T19:15:51.948Z,17.16
2024-04-10T19:18:18.956Z,17.11
2024-04-10T19:20:49.443Z,17.05
2024-04-10T19:23:17.274Z,16.99
2024-04-10T19:25:54.770Z,16.92
2024-04-10T19:28:27.060Z,16.85
2024-04-10T19:30:54.927Z,16.79
2024-04-10T19:33:21.787Z,16.72
2024-04-10T19:35:49.022Z,16.66
2024-04-10T19:38:15.902Z,16.60
2024-04-10T19:40:43.746Z,16.55
2024-04-10T19:43:11.718Z,16.50
2024-04-10T19:45:39.689Z,16.46
2024-04-10T19:48:07.223Z,16.40
2024-04-10T19:50:34.920Z,16.33
2024-04-10T19:53:01.781Z,16.27
2024-04-10T19:55:28.711Z,16.24
2024-04-10T19:57:55.433Z,16.20
2024-04-10T20:00:22.408Z,16.17
2024-04-10T20:02:49.898Z,16.15
2024-04-10T20:05:18.300Z,16.15
2024-04-10T20:07:46.877Z,16.15
2024-04-10T20:10:14.309Z,16.16
2024-04-10T20:12:41.734Z,16.17
2024-04-10T20:15:08.635Z,16.18
2024-04-10T20:17:36.747Z,16.17
2024-04-10T20:20:03.903Z,16.13
2024-04-10T20:22:32.763Z,16.11
2024-04-10T20:25:03.412Z,16.08
2024-04-10T20:27:36.194Z,16.06
2024-04-10T20:30:03.799Z,16.04
2024-04-10T20:32:31.466Z,16.02
2024-04-10T20:34:58.674Z,16.01
2024-04-10T20:37:38.208Z,15.99
2024-04-10T20:40:05.597Z,15.94
2024-04-10T20:42:36.000Z,15.90
2024-04-10T20:45:03.610Z,15.87
2024-04-10T20:47:31.025Z,15.84
2024-04-10T20:49:58.567Z,15.81
2024-04-10T20:52:25.189Z,15.77
2024-04-10T20:54:53.295Z,15.72
2024-04-10T20:57:20.360Z,15.65
2024-04-10T20:59:48.417Z,15.59
2024-04-10T21:02:24.826Z,15.53
2024-04-10T21:04:51.498Z,15.48
2024-04-10T21:07:37.427Z,15.42
2024-04-10T21:10:22.952Z,15.36
2024-04-10T21:13:08.456Z,15.31
2024-04-10T21:15:57.724Z,15.25
2024-04-10T21:18:45.182Z,15.19
2024-04-10T21:21:30.972Z,15.13
2024-04-10T21:24:16.163Z,15.07
2024-04-10T21:27:04.883Z,15.02
2024-04-10T21:29:51.468Z,14.98
2024-04-10T21:32:37.529Z,14.95
2024-04-10T21:35:23.574Z,14.92
2024-04-10T21:38:08.809Z,14.90
2024-04-10T21:40:56.109Z,14.89
2024-04-10T21:43:41.656Z,14.87
2024-04-10T21:46:27.290Z,14.85
2024-04-10T21:49:12.735Z,14.82
2024-04-10T21:51:58.410Z,14.79
2024-04-10T21:54:43.791Z,14.77
2024-04-10T21:57:29.378Z,14.74
2024-04-10T22:00:27.451Z,14.71
2024-04-10T22:03:20.708Z,14.67
2024-04-10T22:06:06.178Z,14.64
2024-04-10T22:08:51.486Z,14.61
2024-04-10T22:11:18.367Z,14.58
2024-04-10T22:13:46.657Z,14.55
2024-04-10T22:16:13.640Z,14.51
2024-04-10T22:18:59.953Z,14.45
2024-04-10T22:21:46.366Z,14.40
2024-04-10T22:24:12.898Z,14.31
2024-04-10T22:26:39.768Z,14.24
2024-04-10T22:29:07.128Z,14.19
2024-04-10T22:31:34.613Z,14.15
2024-04-10T22:37:19.575Z,14.07
2024-04-10T22:39:46.687Z,14.01
2024-04-10T22:42:13.960Z,14.01
2024-04-10T22:44:41.506Z,13.99
2024-04-10T22:47:08.115Z,13.99
2024-04-10T22:49:34.652Z,14.00
2024-04-10T22:52:02.017Z,13.99
2024-04-10T22:54:29.289Z,13.97
2024-04-10T22:56:56.110Z,13.96
2024-04-10T22:59:23.526Z,13.95
2024-04-10T23:01:50.810Z,13.94
2024-04-10T23:04:17.387Z,13.93
2024-04-10T23:07:20.475Z,13.93
2024-04-10T23:09:32.235Z,13.94
2024-04-10T23:11:59.439Z,13.95
2024-04-10T23:14:26.113Z,13.94
2024-04-10T23:16:52.743Z,13.93
2024-04-10T23:19:21.286Z,13.90
2024-04-10T23:21:49.608Z,13.86
2024-04-10T23:24:16.042Z,13.84
2024-04-10T23:26:43.021Z,13.82
2024-04-10T23:29:10.471Z,13.77
2024-04-10T23:31:37.964Z,13.71
2024-04-10T23:34:04.719Z,13.63
2024-04-10T23:36:31.482Z,13.56
2024-04-10T23:38:58.013Z,13.51
2024-04-10T23:41:24.584Z,13.46
2024-04-10T23:43:51.472Z,13.42
2024-04-10T23:46:18.630Z,13.39
2024-04-10T23:48:45.650Z,13.36
2024-04-10T23:51:12.549Z,13.35
2024-04-10T23:53:39.182Z,13.34
2024-04-10T23:56:07.458Z,13.34
2024-04-10T23:58:37.608Z,13.34
